Google Maps JavaScript API Example
Pilot Flight Report # 94902 Submitted by : AST775 on 2021-02-22
Date: 2021-02-22Aircraft: DeHavilland DHC6 Twin Otter - Wheeled
Flight No.: Not AvailableDistance (Nm): 64.73
Departure: 3W5 - Concrete MunDestination: KRNT - Renton Mun
 TimeFuelWeightSpeeds  
Out (Taxi)1651Z1929 lbs10710 lbs Flight RulesVFR
Off (Takeoff)1651Z 10706 lbs89 ktsFlight Level4500
On (Landing)1740Z 10219 lbs83 ktsVSTD-62 ft/min
In (Ramp)1740Z143 lbs10219 lbs ZFW8784 lbs
Flight0.90  -  0:49123 lbs  Pax0
Block0.82  -  0:49190 lbs  Cargo0
Departure WeatherYMRY 200553Z 25902KT 47SM FEW020 19/15 A2987
Destination WeatherYSSY 200648Z 14710KT 46SM FEW020 FEW020 25/21 A2985
Flight Commentstest PIREP for FS2020